sensor_id;sensor_type;location;lat;lon;timestamp;pressure;altitude;pressure_sealevel;temperature;humidity
65897;BME280;52677;50.898;10.854;2022-11-15T00:00:13;98288.91;;;3.30;100.00
65897;BME280;52677;50.898;10.854;2022-11-15T00:02:14;98294.63;;;3.37;100.00
65897;BME280;52677;50.898;10.854;2022-11-15T00:04:14;98296.72;;;3.41;100.00
65897;BME280;52677;50.898;10.854;2022-11-15T00:06:14;98285.19;;;3.35;100.00
65897;BME280;52677;50.898;10.854;2022-11-15T00:08:15;98299.13;;;3.42;100.00
65897;BME280;52677;50.898;10.854;2022-11-15T00:10:15;98283.84;;;3.41;100.00
65897;BME280;52677;50.898;10.854;2022-11-15T00:12:16;98286.91;;;3.40;100.00
65897;BME280;52677;50.898;10.854;2022-11-15T00:14:16;98289.09;;;3.46;100.00
65897;BME280;52677;50.898;10.854;2022-11-15T00:16:16;98289.22;;;3.50;100.00
65897;BME280;52677;50.898;10.854;2022-11-15T00:18:18;98274.22;;;3.56;100.00
65897;BME280;52677;50.898;10.854;2022-11-15T00:20:18;98275.59;;;3.62;100.00
65897;BME280;52677;50.898;10.854;2022-11-15T00:22:18;98278.66;;;3.60;100.00
65897;BME280;52677;50.898;10.854;2022-11-15T00:24:19;98275.13;;;3.60;100.00
65897;BME280;52677;50.898;10.854;2022-11-15T00:26:19;98277.88;;;3.60;100.00
65897;BME280;52677;50.898;10.854;2022-11-15T00:28:19;98278.13;;;3.67;100.00
65897;BME280;52677;50.898;10.854;2022-11-15T00:30:20;98279.72;;;3.68;100.00
65897;BME280;52677;50.898;10.854;2022-11-15T00:32:20;98275.97;;;3.73;100.00
65897;BME280;52677;50.898;10.854;2022-11-15T00:34:21;98289.69;;;3.85;100.00
65897;BME280;52677;50.898;10.854;2022-11-15T00:36:21;98279.31;;;3.90;100.00
65897;BME280;52677;50.898;10.854;2022-11-15T00:38:21;98284.22;;;3.97;100.00
65897;BME280;52677;50.898;10.854;2022-11-15T00:40:21;98285.50;;;4.00;100.00
65897;BME280;52677;50.898;10.854;2022-11-15T00:42:22;98288.00;;;4.05;100.00
65897;BME280;52677;50.898;10.854;2022-11-15T00:44:22;98289.84;;;4.01;100.00
65897;BME280;52677;50.898;10.854;2022-11-15T00:46:23;98288.91;;;3.97;100.00
65897;BME280;52677;50.898;10.854;2022-11-15T00:48:23;98286.84;;;3.93;100.00
65897;BME280;52677;50.898;10.854;2022-11-15T00:50:24;98288.44;;;3.94;100.00
65897;BME280;52677;50.898;10.854;2022-11-15T00:52:24;98299.41;;;3.94;100.00
65897;BME280;52677;50.898;10.854;2022-11-15T00:54:24;98285.38;;;3.96;100.00
65897;BME280;52677;50.898;10.854;2022-11-15T00:56:25;98285.84;;;3.98;100.00
65897;BME280;52677;50.898;10.854;2022-11-15T00:58:25;98282.41;;;4.01;100.00
65897;BME280;52677;50.898;10.854;2022-11-15T01:00:25;98269.53;;;4.02;100.00
65897;BME280;52677;50.898;10.854;2022-11-15T01:02:26;98283.69;;;4.04;100.00
65897;BME280;52677;50.898;10.854;2022-11-15T01:04:26;98267.13;;;4.00;100.00
65897;BME280;52677;50.898;10.854;2022-11-15T01:06:27;98267.38;;;4.07;100.00
65897;BME280;52677;50.898;10.854;2022-11-15T01:08:27;98266.03;;;4.26;100.00
65897;BME280;52677;50.898;10.854;2022-11-15T01:10:27;98263.97;;;4.35;100.00
65897;BME280;52677;50.898;10.854;2022-11-15T01:12:28;98264.44;;;4.49;100.00
65897;BME280;52677;50.898;10.854;2022-11-15T01:14:28;98262.38;;;4.58;100.00
65897;BME280;52677;50.898;10.854;2022-11-15T01:16:28;98270.56;;;4.70;100.00
65897;BME280;52677;50.898;10.854;2022-11-15T01:18:29;98261.78;;;4.77;100.00
65897;BME280;52677;50.898;10.854;2022-11-15T01:20:29;98256.63;;;5.28;100.00
65897;BME280;52677;50.898;10.854;2022-11-15T01:22:29;98263.09;;;5.35;100.00
65897;BME280;52677;50.898;10.854;2022-11-15T01:24:31;98254.06;;;5.47;100.00
65897;BME280;52677;50.898;10.854;2022-11-15T01:26:31;98260.63;;;5.58;100.00
65897;BME280;52677;50.898;10.854;2022-11-15T01:28:33;98255.44;;;5.85;100.00
65897;BME280;52677;50.898;10.854;2022-11-15T01:30:35;98245.47;;;5.93;100.00
65897;BME280;52677;50.898;10.854;2022-11-15T01:32:36;98250.63;;;5.94;100.00
65897;BME280;52677;50.898;10.854;2022-11-15T01:34:36;98255.59;;;5.76;100.00
65897;BME280;52677;50.898;10.854;2022-11-15T01:36:36;98257.03;;;5.86;100.00
65897;BME280;52677;50.898;10.854;2022-11-15T01:38:37;98248.59;;;5.91;100.00
65897;BME280;52677;50.898;10.854;2022-11-15T01:40:37;98249.56;;;5.99;100.00
65897;BME280;52677;50.898;10.854;2022-11-15T01:42:37;98244.75;;;5.96;100.00
65897;BME280;52677;50.898;10.854;2022-11-15T01:44:42;98245.59;;;5.96;100.00
65897;BME280;52677;50.898;10.854;2022-11-15T01:46:47;98232.53;;;5.93;100.00
65897;BME280;52677;50.898;10.854;2022-11-15T01:48:50;98232.66;;;6.12;100.00
65897;BME280;52677;50.898;10.854;2022-11-15T01:50:51;98229.63;;;6.17;100.00
65897;BME280;52677;50.898;10.854;2022-11-15T01:52:52;98236.34;;;6.20;100.00
65897;BME280;52677;50.898;10.854;2022-11-15T01:57:09;98218.19;;;6.31;100.00
65897;BME280;52677;50.898;10.854;2022-11-15T01:59:10;98226.88;;;6.33;100.00
65897;BME280;52677;50.898;10.854;2022-11-15T02:01:12;98219.16;;;6.39;100.00
65897;BME280;52677;50.898;10.854;2022-11-15T02:03:13;98224.31;;;6.40;100.00
65897;BME280;52677;50.898;10.854;2022-11-15T02:05:14;98228.47;;;6.34;100.00
65897;BME280;52677;50.898;10.854;2022-11-15T02:07:19;98214.91;;;6.26;100.00
65897;BME280;52677;50.898;10.854;2022-11-15T02:09:21;98213.25;;;6.21;100.00
65897;BME280;52677;50.898;10.854;2022-11-15T02:11:21;98216.97;;;6.13;100.00
65897;BME280;52677;50.898;10.854;2022-11-15T02:13:22;98222.28;;;6.06;100.00
65897;BME280;52677;50.898;10.854;2022-11-15T02:15:28;98208.63;;;5.94;100.00
65897;BME280;52677;50.898;10.854;2022-11-15T02:22:33;98208.41;;;5.71;100.00
65897;BME280;52677;50.898;10.854;2022-11-15T02:32:06;98201.72;;;6.00;100.00
65897;BME280;52677;50.898;10.854;2022-11-15T02:36:36;98194.03;;;6.21;100.00
65897;BME280;52677;50.898;10.854;2022-11-15T02:41:11;98203.69;;;6.15;100.00
65897;BME280;52677;50.898;10.854;2022-11-15T02:43:21;98199.59;;;6.09;100.00
65897;BME280;52677;50.898;10.854;2022-11-15T02:45:49;98197.63;;;5.94;100.00
65897;BME280;52677;50.898;10.854;2022-11-15T02:47:52;98198.16;;;5.83;100.00
65897;BME280;52677;50.898;10.854;2022-11-15T02:49:57;98200.97;;;5.71;100.00
65897;BME280;52677;50.898;10.854;2022-11-15T02:51:58;98201.28;;;5.54;100.00
65897;BME280;52677;50.898;10.854;2022-11-15T02:53:59;98190.03;;;5.43;100.00
65897;BME280;52677;50.898;10.854;2022-11-15T02:55:59;98191.44;;;5.37;100.00
65897;BME280;52677;50.898;10.854;2022-11-15T03:00:19;98195.47;;;5.27;100.00
65897;BME280;52677;50.898;10.854;2022-11-15T03:09:22;98195.72;;;4.94;100.00
65897;BME280;52677;50.898;10.854;2022-11-15T03:11:19;98187.75;;;4.89;100.00
65897;BME280;52677;50.898;10.854;2022-11-15T03:15:37;98180.94;;;4.71;100.00
65897;BME280;52677;50.898;10.854;2022-11-15T03:17:44;98183.94;;;4.66;100.00
65897;BME280;52677;50.898;10.854;2022-11-15T03:19:48;98185.31;;;4.60;100.00
65897;BME280;52677;50.898;10.854;2022-11-15T03:21:51;98184.41;;;4.56;100.00
65897;BME280;52677;50.898;10.854;2022-11-15T03:23:53;98181.19;;;4.54;100.00
65897;BME280;52677;50.898;10.854;2022-11-15T03:25:56;98184.19;;;4.48;100.00
65897;BME280;52677;50.898;10.854;2022-11-15T03:28:01;98183.03;;;4.49;100.00
65897;BME280;52677;50.898;10.854;2022-11-15T03:30:05;98182.13;;;4.45;100.00
65897;BME280;52677;50.898;10.854;2022-11-15T03:32:13;98176.09;;;4.40;100.00
65897;BME280;52677;50.898;10.854;2022-11-15T03:36:40;98177.25;;;4.27;100.00
65897;BME280;52677;50.898;10.854;2022-11-15T03:38:41;98177.94;;;4.23;100.00
65897;BME280;52677;50.898;10.854;2022-11-15T03:40:45;98180.44;;;4.16;100.00
65897;BME280;52677;50.898;10.854;2022-11-15T03:42:59;98180.22;;;4.09;100.00
65897;BME280;52677;50.898;10.854;2022-11-15T03:47:20;98169.84;;;4.03;100.00
65897;BME280;52677;50.898;10.854;2022-11-15T03:49:29;98178.28;;;3.98;100.00
65897;BME280;52677;50.898;10.854;2022-11-15T03:51:31;98176.91;;;3.91;100.00
65897;BME280;52677;50.898;10.854;2022-11-15T03:53:32;98161.50;;;3.87;100.00
65897;BME280;52677;50.898;10.854;2022-11-15T03:55:33;98173.16;;;3.84;100.00
65897;BME280;52677;50.898;10.854;2022-11-15T03:57:33;98164.13;;;3.83;100.00
65897;BME280;52677;50.898;10.854;2022-11-15T03:59:33;98157.88;;;3.83;100.00
65897;BME280;52677;50.898;10.854;2022-11-15T04:01:34;98158.53;;;3.80;100.00
65897;BME280;52677;50.898;10.854;2022-11-15T04:03:34;98157.72;;;3.79;100.00
65897;BME280;52677;50.898;10.854;2022-11-15T04:05:34;98160.81;;;3.78;100.00
65897;BME280;52677;50.898;10.854;2022-11-15T04:07:35;98169.72;;;3.75;100.00
65897;BME280;52677;50.898;10.854;2022-11-15T04:09:35;98158.63;;;3.71;100.00
65897;BME280;52677;50.898;10.854;2022-11-15T04:11:58;98165.25;;;3.70;100.00
65897;BME280;52677;50.898;10.854;2022-11-15T04:13:58;98165.94;;;3.79;100.00
65897;BME280;52677;50.898;10.854;2022-11-15T04:15:59;98160.84;;;3.90;100.00
65897;BME280;52677;50.898;10.854;2022-11-15T04:17:59;98165.28;;;3.94;100.00
65897;BME280;52677;50.898;10.854;2022-11-15T04:20:00;98155.81;;;3.92;100.00
65897;BME280;52677;50.898;10.854;2022-11-15T04:22:18;98165.16;;;3.91;100.00
65897;BME280;52677;50.898;10.854;2022-11-15T04:24:37;98160.03;;;3.89;100.00
65897;BME280;52677;50.898;10.854;2022-11-15T04:26:38;98148.28;;;3.89;100.00
65897;BME280;52677;50.898;10.854;2022-11-15T04:28:38;98158.41;;;3.88;100.00
65897;BME280;52677;50.898;10.854;2022-11-15T04:30:57;98158.78;;;3.87;100.00
65897;BME280;52677;50.898;10.854;2022-11-15T04:32:57;98148.63;;;3.87;100.00
65897;BME280;52677;50.898;10.854;2022-11-15T04:34:58;98155.69;;;3.88;100.00
65897;BME280;52677;50.898;10.854;2022-11-15T04:36:58;98154.56;;;3.89;100.00
65897;BME280;52677;50.898;10.854;2022-11-15T04:39:14;98164.72;;;3.89;100.00
65897;BME280;52677;50.898;10.854;2022-11-15T04:41:14;98156.03;;;3.87;100.00
65897;BME280;52677;50.898;10.854;2022-11-15T04:43:14;98148.50;;;3.84;100.00
65897;BME280;52677;50.898;10.854;2022-11-15T04:45:15;98153.97;;;3.84;100.00
65897;BME280;52677;50.898;10.854;2022-11-15T04:47:15;98147.28;;;3.81;100.00
65897;BME280;52677;50.898;10.854;2022-11-15T04:49:15;98144.06;;;3.79;100.00
65897;BME280;52677;50.898;10.854;2022-11-15T04:51:16;98151.13;;;3.80;100.00
65897;BME280;52677;50.898;10.854;2022-11-15T04:53:16;98153.06;;;3.80;100.00
65897;BME280;52677;50.898;10.854;2022-11-15T04:55:16;98153.31;;;3.75;100.00
65897;BME280;52677;50.898;10.854;2022-11-15T04:57:17;98152.84;;;3.73;100.00
65897;BME280;52677;50.898;10.854;2022-11-15T04:59:17;98151.13;;;3.68;100.00
65897;BME280;52677;50.898;10.854;2022-11-15T05:01:18;98149.88;;;3.65;100.00
65897;BME280;52677;50.898;10.854;2022-11-15T05:03:18;98161.03;;;3.60;100.00
65897;BME280;52677;50.898;10.854;2022-11-15T05:05:37;98151.44;;;3.54;100.00
65897;BME280;52677;50.898;10.854;2022-11-15T05:07:37;98143.56;;;3.53;100.00
65897;BME280;52677;50.898;10.854;2022-11-15T05:09:37;98141.06;;;3.48;100.00
65897;BME280;52677;50.898;10.854;2022-11-15T05:11:38;98149.50;;;3.43;100.00
65897;BME280;52677;50.898;10.854;2022-11-15T05:13:38;98146.63;;;3.39;100.00
65897;BME280;52677;50.898;10.854;2022-11-15T05:15:39;98146.50;;;3.35;100.00
65897;BME280;52677;50.898;10.854;2022-11-15T05:17:39;98153.81;;;3.31;100.00
65897;BME280;52677;50.898;10.854;2022-11-15T05:19:39;98148.19;;;3.28;100.00
65897;BME280;52677;50.898;10.854;2022-11-15T05:21:40;98146.81;;;3.22;100.00
65897;BME280;52677;50.898;10.854;2022-11-15T05:23:40;98151.22;;;3.14;100.00
65897;BME280;52677;50.898;10.854;2022-11-15T05:25:41;98149.16;;;3.11;100.00
65897;BME280;52677;50.898;10.854;2022-11-15T05:27:41;98146.78;;;3.09;100.00
65897;BME280;52677;50.898;10.854;2022-11-15T05:29:41;98144.13;;;3.01;100.00
65897;BME280;52677;50.898;10.854;2022-11-15T05:31:42;98145.47;;;2.95;100.00
65897;BME280;52677;50.898;10.854;2022-11-15T05:33:43;98153.56;;;2.91;100.00
65897;BME280;52677;50.898;10.854;2022-11-15T05:35:50;98138.59;;;2.89;100.00
65897;BME280;52677;50.898;10.854;2022-11-15T05:37:52;98147.47;;;2.86;100.00
65897;BME280;52677;50.898;10.854;2022-11-15T05:39:53;98147.47;;;2.86;100.00
65897;BME280;52677;50.898;10.854;2022-11-15T05:41:56;98152.16;;;2.85;100.00
65897;BME280;52677;50.898;10.854;2022-11-15T05:44:00;98136.44;;;2.82;100.00
65897;BME280;52677;50.898;10.854;2022-11-15T05:46:02;98143.00;;;2.81;100.00
65897;BME280;52677;50.898;10.854;2022-11-15T05:48:06;98139.03;;;2.78;100.00
65897;BME280;52677;50.898;10.854;2022-11-15T05:50:12;98132.31;;;2.76;100.00
65897;BME280;52677;50.898;10.854;2022-11-15T05:52:16;98142.28;;;2.72;100.00
65897;BME280;52677;50.898;10.854;2022-11-15T05:54:19;98130.09;;;2.69;100.00
65897;BME280;52677;50.898;10.854;2022-11-15T05:56:20;98146.50;;;2.69;100.00
65897;BME280;52677;50.898;10.854;2022-11-15T05:58:21;98133.19;;;2.68;100.00
65897;BME280;52677;50.898;10.854;2022-11-15T06:00:21;98136.38;;;2.70;100.00
65897;BME280;52677;50.898;10.854;2022-11-15T06:02:22;98128.31;;;2.73;100.00
65897;BME280;52677;50.898;10.854;2022-11-15T06:04:22;98131.97;;;2.77;100.00
65897;BME280;52677;50.898;10.854;2022-11-15T06:06:22;98128.69;;;2.84;100.00
65897;BME280;52677;50.898;10.854;2022-11-15T06:08:23;98128.69;;;2.84;100.00
65897;BME280;52677;50.898;10.854;2022-11-15T06:10:23;98125.63;;;2.86;100.00
65897;BME280;52677;50.898;10.854;2022-11-15T06:12:23;98126.22;;;2.91;100.00
65897;BME280;52677;50.898;10.854;2022-11-15T06:14:24;98132.16;;;2.93;100.00
65897;BME280;52677;50.898;10.854;2022-11-15T06:16:24;98132.94;;;2.94;100.00
65897;BME280;52677;50.898;10.854;2022-11-15T06:18:25;98138.53;;;2.97;100.00
65897;BME280;52677;50.898;10.854;2022-11-15T06:20:27;98150.50;;;3.05;100.00
65897;BME280;52677;50.898;10.854;2022-11-15T06:22:27;98146.97;;;3.04;100.00
65897;BME280;52677;50.898;10.854;2022-11-15T06:24:27;98156.13;;;3.08;100.00
65897;BME280;52677;50.898;10.854;2022-11-15T06:26:28;98158.84;;;3.08;100.00
65897;BME280;52677;50.898;10.854;2022-11-15T06:28:29;98151.44;;;3.09;100.00
65897;BME280;52677;50.898;10.854;2022-11-15T06:30:30;98143.25;;;3.09;100.00
65897;BME280;52677;50.898;10.854;2022-11-15T06:32:30;98154.97;;;3.09;100.00
65897;BME280;52677;50.898;10.854;2022-11-15T06:34:30;98158.97;;;3.12;100.00
65897;BME280;52677;50.898;10.854;2022-11-15T06:36:34;98161.25;;;3.10;100.00
65897;BME280;52677;50.898;10.854;2022-11-15T06:38:35;98165.13;;;3.09;100.00
65897;BME280;52677;50.898;10.854;2022-11-15T06:40:36;98163.53;;;3.08;100.00
65897;BME280;52677;50.898;10.854;2022-11-15T06:42:37;98155.19;;;3.04;100.00
65897;BME280;52677;50.898;10.854;2022-11-15T06:44:37;98159.06;;;3.03;100.00
65897;BME280;52677;50.898;10.854;2022-11-15T06:46:37;98164.06;;;3.01;100.00
65897;BME280;52677;50.898;10.854;2022-11-15T06:48:38;98158.59;;;3.01;100.00
65897;BME280;52677;50.898;10.854;2022-11-15T06:50:38;98169.06;;;2.99;100.00
65897;BME280;52677;50.898;10.854;2022-11-15T06:52:38;98169.38;;;2.98;100.00
65897;BME280;52677;50.898;10.854;2022-11-15T06:54:39;98168.81;;;2.92;100.00
65897;BME280;52677;50.898;10.854;2022-11-15T06:56:39;98179.59;;;2.89;100.00
65897;BME280;52677;50.898;10.854;2022-11-15T06:58:39;98170.03;;;2.83;100.00
65897;BME280;52677;50.898;10.854;2022-11-15T07:00:40;98174.53;;;2.78;100.00
65897;BME280;52677;50.898;10.854;2022-11-15T07:02:40;98168.97;;;2.75;100.00
65897;BME280;52677;50.898;10.854;2022-11-15T07:04:40;98163.50;;;2.75;100.00
65897;BME280;52677;50.898;10.854;2022-11-15T07:06:41;98151.44;;;2.76;100.00
65897;BME280;52677;50.898;10.854;2022-11-15T07:08:41;98168.75;;;2.80;100.00
65897;BME280;52677;50.898;10.854;2022-11-15T07:10:41;98156.66;;;2.81;100.00
65897;BME280;52677;50.898;10.854;2022-11-15T07:12:42;98159.75;;;2.79;100.00
65897;BME280;52677;50.898;10.854;2022-11-15T07:14:42;98166.00;;;2.80;100.00
65897;BME280;52677;50.898;10.854;2022-11-15T07:16:42;98163.75;;;2.82;100.00
65897;BME280;52677;50.898;10.854;2022-11-15T07:18:43;98165.47;;;2.87;100.00
65897;BME280;52677;50.898;10.854;2022-11-15T07:20:43;98171.41;;;2.89;100.00
65897;BME280;52677;50.898;10.854;2022-11-15T07:22:43;98173.31;;;2.88;100.00
65897;BME280;52677;50.898;10.854;2022-11-15T07:24:47;98170.41;;;2.93;100.00
65897;BME280;52677;50.898;10.854;2022-11-15T07:26:47;98169.88;;;3.00;100.00
65897;BME280;52677;50.898;10.854;2022-11-15T07:28:48;98171.81;;;2.99;100.00
65897;BME280;52677;50.898;10.854;2022-11-15T07:30:48;98171.59;;;3.04;100.00
65897;BME280;52677;50.898;10.854;2022-11-15T07:32:59;98169.00;;;3.08;100.00
65897;BME280;52677;50.898;10.854;2022-11-15T07:34:59;98167.84;;;3.09;100.00
65897;BME280;52677;50.898;10.854;2022-11-15T07:37:00;98169.25;;;3.15;100.00
65897;BME280;52677;50.898;10.854;2022-11-15T07:39:00;98168.09;;;3.16;100.00
65897;BME280;52677;50.898;10.854;2022-11-15T07:41:02;98169.47;;;3.22;100.00
65897;BME280;52677;50.898;10.854;2022-11-15T07:43:06;98165.63;;;3.23;100.00
65897;BME280;52677;50.898;10.854;2022-11-15T07:45:06;98164.59;;;3.28;100.00
65897;BME280;52677;50.898;10.854;2022-11-15T07:47:07;98160.53;;;3.34;100.00
65897;BME280;52677;50.898;10.854;2022-11-15T07:49:07;98162.56;;;3.37;100.00
65897;BME280;52677;50.898;10.854;2022-11-15T07:51:11;98165.44;;;3.41;100.00
65897;BME280;52677;50.898;10.854;2022-11-15T07:53:12;98159.53;;;3.51;100.00
65897;BME280;52677;50.898;10.854;2022-11-15T07:55:13;98162.28;;;3.63;100.00
65897;BME280;52677;50.898;10.854;2022-11-15T07:57:13;98156.59;;;3.68;100.00
65897;BME280;52677;50.898;10.854;2022-11-15T07:59:14;98149.41;;;3.76;100.00
65897;BME280;52677;50.898;10.854;2022-11-15T08:01:14;98154.69;;;3.81;100.00
65897;BME280;52677;50.898;10.854;2022-11-15T08:03:16;98144.28;;;3.86;100.00
65897;BME280;52677;50.898;10.854;2022-11-15T08:05:16;98140.53;;;3.91;100.00
65897;BME280;52677;50.898;10.854;2022-11-15T08:07:17;98138.81;;;3.99;100.00
65897;BME280;52677;50.898;10.854;2022-11-15T08:09:17;98134.69;;;4.05;100.00
65897;BME280;52677;50.898;10.854;2022-11-15T08:11:17;98138.13;;;4.14;100.00
65897;BME280;52677;50.898;10.854;2022-11-15T08:13:18;98142.22;;;4.20;100.00
65897;BME280;52677;50.898;10.854;2022-11-15T08:15:18;98141.28;;;4.28;100.00
65897;BME280;52677;50.898;10.854;2022-11-15T08:17:18;98147.00;;;4.35;100.00
65897;BME280;52677;50.898;10.854;2022-11-15T08:19:19;98148.81;;;4.43;100.00
65897;BME280;52677;50.898;10.854;2022-11-15T08:21:21;98150.25;;;4.53;100.00
65897;BME280;52677;50.898;10.854;2022-11-15T08:23:21;98146.25;;;4.63;100.00
65897;BME280;52677;50.898;10.854;2022-11-15T08:25:21;98145.06;;;4.76;100.00
65897;BME280;52677;50.898;10.854;2022-11-15T08:27:22;98135.66;;;4.89;100.00
65897;BME280;52677;50.898;10.854;2022-11-15T08:29:22;98138.34;;;5.01;100.00
65897;BME280;52677;50.898;10.854;2022-11-15T08:31:22;98137.16;;;5.15;100.00
65897;BME280;52677;50.898;10.854;2022-11-15T08:33:23;98132.66;;;5.22;100.00
65897;BME280;52677;50.898;10.854;2022-11-15T08:35:24;98138.84;;;5.35;100.00
65897;BME280;52677;50.898;10.854;2022-11-15T08:37:24;98133.66;;;5.46;100.00
65897;BME280;52677;50.898;10.854;2022-11-15T08:39:25;98125.44;;;5.61;100.00
65897;BME280;52677;50.898;10.854;2022-11-15T08:41:26;98119.06;;;5.73;100.00
65897;BME280;52677;50.898;10.854;2022-11-15T08:43:28;98125.25;;;5.86;100.00
65897;BME280;52677;50.898;10.854;2022-11-15T08:45:29;98113.78;;;5.96;100.00
65897;BME280;52677;50.898;10.854;2022-11-15T08:47:30;98121.91;;;6.08;100.00
65897;BME280;52677;50.898;10.854;2022-11-15T08:49:30;98124.81;;;6.15;100.00
65897;BME280;52677;50.898;10.854;2022-11-15T08:51:30;98117.16;;;6.25;100.00
65897;BME280;52677;50.898;10.854;2022-11-15T08:53:30;98119.78;;;6.37;100.00
65897;BME280;52677;50.898;10.854;2022-11-15T08:55:31;98114.44;;;6.44;100.00
65897;BME280;52677;50.898;10.854;2022-11-15T08:57:31;98120.91;;;6.52;100.00
65897;BME280;52677;50.898;10.854;2022-11-15T08:59:31;98111.66;;;6.60;100.00
65897;BME280;52677;50.898;10.854;2022-11-15T09:01:32;98105.50;;;6.66;100.00
65897;BME280;52677;50.898;10.854;2022-11-15T09:03:32;98111.16;;;6.73;100.00
65897;BME280;52677;50.898;10.854;2022-11-15T09:05:35;98112.09;;;6.81;100.00
65897;BME280;52677;50.898;10.854;2022-11-15T09:07:36;98106.75;;;6.88;100.00
65897;BME280;52677;50.898;10.854;2022-11-15T09:09:36;98100.16;;;6.93;100.00
65897;BME280;52677;50.898;10.854;2022-11-15T09:11:37;98100.22;;;6.96;100.00
65897;BME280;52677;50.898;10.854;2022-11-15T09:13:38;98103.91;;;7.04;100.00
65897;BME280;52677;50.898;10.854;2022-11-15T09:15:38;98105.28;;;7.14;100.00
65897;BME280;52677;50.898;10.854;2022-11-15T09:17:38;98115.25;;;7.22;100.00
65897;BME280;52677;50.898;10.854;2022-11-15T09:19:38;98108.72;;;7.30;100.00
65897;BME280;52677;50.898;10.854;2022-11-15T09:21:39;98106.91;;;7.38;100.00
65897;BME280;52677;50.898;10.854;2022-11-15T09:23:39;98105.88;;;7.46;100.00
65897;BME280;52677;50.898;10.854;2022-11-15T09:25:40;98103.53;;;7.48;100.00
65897;BME280;52677;50.898;10.854;2022-11-15T09:27:40;98105.25;;;7.56;100.00
65897;BME280;52677;50.898;10.854;2022-11-15T09:29:41;98105.44;;;7.67;100.00
65897;BME280;52677;50.898;10.854;2022-11-15T09:31:41;98105.19;;;7.75;100.00
65897;BME280;52677;50.898;10.854;2022-11-15T09:33:45;98100.09;;;7.77;100.00
65897;BME280;52677;50.898;10.854;2022-11-15T09:35:45;98095.88;;;7.83;100.00
65897;BME280;52677;50.898;10.854;2022-11-15T09:37:46;98105.34;;;7.86;100.00
65897;BME280;52677;50.898;10.854;2022-11-15T09:39:46;98092.41;;;7.86;100.00
65897;BME280;52677;50.898;10.854;2022-11-15T09:50:54;98076.50;;;8.03;100.00
65897;BME280;52677;50.898;10.854;2022-11-15T09:53:00;98076.94;;;8.05;100.00
65897;BME280;52677;50.898;10.854;2022-11-15T09:55:00;98070.72;;;8.11;100.00
65897;BME280;52677;50.898;10.854;2022-11-15T09:59:37;98065.69;;;8.17;100.00
65897;BME280;52677;50.898;10.854;2022-11-15T10:03:57;98061.69;;;8.37;100.00
65897;BME280;52677;50.898;10.854;2022-11-15T10:06:02;98063.78;;;8.48;100.00
65897;BME280;52677;50.898;10.854;2022-11-15T10:10:44;98070.56;;;8.54;99.90
65897;BME280;52677;50.898;10.854;2022-11-15T10:12:49;98061.84;;;8.52;100.00
65897;BME280;52677;50.898;10.854;2022-11-15T10:15:03;98054.03;;;8.57;100.00
65897;BME280;52677;50.898;10.854;2022-11-15T10:21:51;98054.03;;;8.87;97.97
65897;BME280;52677;50.898;10.854;2022-11-15T10:23:57;98047.44;;;8.99;96.03
65897;BME280;52677;50.898;10.854;2022-11-15T10:25:59;98045.53;;;9.03;95.02
65897;BME280;52677;50.898;10.854;2022-11-15T10:30:15;98036.94;;;9.12;93.43
65897;BME280;52677;50.898;10.854;2022-11-15T10:32:20;98034.59;;;9.14;95.42
65897;BME280;52677;50.898;10.854;2022-11-15T10:34:22;98037.81;;;9.19;95.24
65897;BME280;52677;50.898;10.854;2022-11-15T10:36:23;98032.69;;;9.21;95.41
65897;BME280;52677;50.898;10.854;2022-11-15T10:38:25;98033.97;;;9.35;92.76
65897;BME280;52677;50.898;10.854;2022-11-15T10:40:25;98030.88;;;9.40;92.19
65897;BME280;52677;50.898;10.854;2022-11-15T10:42:28;98027.41;;;9.46;92.46
65897;BME280;52677;50.898;10.854;2022-11-15T10:44:29;98016.81;;;9.55;92.37
65897;BME280;52677;50.898;10.854;2022-11-15T10:46:29;98000.66;;;9.57;91.75
65897;BME280;52677;50.898;10.854;2022-11-15T10:48:30;98002.28;;;9.62;91.11
65897;BME280;52677;50.898;10.854;2022-11-15T10:50:31;98012.16;;;9.67;90.96
65897;BME280;52677;50.898;10.854;2022-11-15T10:52:34;98004.66;;;9.67;91.06
65897;BME280;52677;50.898;10.854;2022-11-15T10:54:42;97998.00;;;9.72;90.02
65897;BME280;52677;50.898;10.854;2022-11-15T10:56:49;97999.63;;;9.80;88.71
65897;BME280;52677;50.898;10.854;2022-11-15T10:58:53;97996.09;;;9.83;88.95
65897;BME280;52677;50.898;10.854;2022-11-15T11:00:55;97995.34;;;9.86;89.58
65897;BME280;52677;50.898;10.854;2022-11-15T11:04:56;97989.88;;;10.00;88.23
65897;BME280;52677;50.898;10.854;2022-11-15T11:06:58;97988.75;;;10.08;87.42
65897;BME280;52677;50.898;10.854;2022-11-15T11:08:59;97989.19;;;10.14;87.67
65897;BME280;52677;50.898;10.854;2022-11-15T11:11:01;97983.66;;;10.18;87.64
65897;BME280;52677;50.898;10.854;2022-11-15T11:13:22;97980.09;;;10.17;88.69
65897;BME280;52677;50.898;10.854;2022-11-15T11:15:26;97976.19;;;10.18;88.95
65897;BME280;52677;50.898;10.854;2022-11-15T11:22:20;97970.34;;;10.27;89.18
65897;BME280;52677;50.898;10.854;2022-11-15T11:24:38;97962.44;;;10.32;87.74
65897;BME280;52677;50.898;10.854;2022-11-15T11:33:10;97959.38;;;10.59;86.10
65897;BME280;52677;50.898;10.854;2022-11-15T11:35:19;97955.03;;;10.65;85.78
65897;BME280;52677;50.898;10.854;2022-11-15T11:48:45;97951.16;;;10.91;85.49
65897;BME280;52677;50.898;10.854;2022-11-15T11:50:47;97946.41;;;10.88;85.75
65897;BME280;52677;50.898;10.854;2022-11-15T11:55:13;97933.34;;;10.78;85.43
65897;BME280;52677;50.898;10.854;2022-11-15T11:57:46;97936.50;;;10.76;85.59
65897;BME280;52677;50.898;10.854;2022-11-15T11:59:55;97932.13;;;10.72;86.17
65897;BME280;52677;50.898;10.854;2022-11-15T12:01:57;97938.06;;;10.70;86.04
65897;BME280;52677;50.898;10.854;2022-11-15T12:04:14;97938.47;;;10.68;86.29